createdAt,value
2017-01-01T00:00:53.808Z,977.56
2017-01-01T00:01:53.796Z,977.53
2017-01-01T00:02:53.796Z,977.51
2017-01-01T00:03:53.789Z,977.52
2017-01-01T00:04:53.788Z,977.53
2017-01-01T00:05:53.776Z,977.47
2017-01-01T00:06:53.776Z,977.47
2017-01-01T00:07:53.772Z,977.48
2017-01-01T00:08:53.764Z,977.5
2017-01-01T00:09:53.764Z,977.47
2017-01-01T00:10:53.760Z,977.48
2017-01-01T00:11:53.752Z,977.5
2017-01-01T00:12:53.745Z,977.45
2017-01-01T00:13:53.744Z,977.44
2017-01-01T00:14:53.736Z,977.44
2017-01-01T00:15:53.736Z,977.42
2017-01-01T00:16:53.725Z,977.41
2017-01-01T00:17:53.724Z,977.42
2017-01-01T00:18:53.716Z,977.42
2017-01-01T00:19:53.716Z,977.43
2017-01-01T00:20:53.712Z,977.39
2017-01-01T00:21:53.708Z,977.35
2017-01-01T00:22:53.696Z,977.35
2017-01-01T00:23:53.696Z,977.38
2017-01-01T00:24:53.692Z,977.32
2017-01-01T00:25:53.684Z,977.35
2017-01-01T00:26:55.096Z,977.35
2017-01-01T00:27:53.676Z,977.33
2017-01-01T00:28:53.672Z,977.32
2017-01-01T00:29:53.664Z,977.35
2017-01-01T00:30:53.663Z,977.3
2017-01-01T00:31:53.656Z,977.3
2017-01-01T00:32:53.652Z,977.3
2017-01-01T00:33:53.648Z,977.3
2017-01-01T00:34:53.644Z,977.26
2017-01-01T00:35:53.636Z,977.25
2017-01-01T00:36:53.832Z,977.22
2017-01-01T00:37:53.628Z,977.22
2017-01-01T00:38:53.624Z,977.19
2017-01-01T00:39:53.616Z,977.18
2017-01-01T00:40:53.616Z,977.16
2017-01-01T00:41:53.612Z,977.19
2017-01-01T00:42:53.608Z,977.17
2017-01-01T00:43:53.600Z,977.17
2017-01-01T00:44:53.596Z,977.14
2017-01-01T00:45:53.600Z,977.16
2017-01-01T00:46:53.588Z,977.16
2017-01-01T00:47:53.584Z,977.18
2017-01-01T00:48:53.576Z,977.19
2017-01-01T00:49:53.572Z,977.22
2017-01-01T00:50:53.564Z,977.18
2017-01-01T00:51:53.564Z,977.23
2017-01-01T00:52:53.556Z,977.22
2017-01-01T00:53:53.556Z,977.2
2017-01-01T00:54:53.544Z,977.23
2017-01-01T00:55:53.544Z,977.22
2017-01-01T00:56:53.540Z,977.21
2017-01-01T00:57:53.536Z,977.19
2017-01-01T00:58:53.532Z,977.21
2017-01-01T00:59:53.524Z,977.18
2017-01-01T01:00:53.520Z,977.2
2017-01-01T01:01:53.516Z,977.18
2017-01-01T01:02:53.512Z,977.18
2017-01-01T01:03:53.504Z,977.19
2017-01-01T01:04:53.500Z,977.19
2017-01-01T01:05:53.492Z,977.16
2017-01-01T01:06:53.496Z,977.14
2017-01-01T01:07:53.484Z,977.14
2017-01-01T01:08:53.484Z,977.12
2017-01-01T01:09:53.480Z,977.13
2017-01-01T01:10:53.472Z,977.1
2017-01-01T01:11:53.465Z,977.09
2017-01-01T01:12:53.465Z,977.12
2017-01-01T01:13:53.460Z,977.12
2017-01-01T01:14:53.453Z,977.12
2017-01-01T01:15:53.448Z,977.09
2017-01-01T01:16:53.696Z,977.06
2017-01-01T01:17:53.440Z,977.07
2017-01-01T01:18:53.437Z,977.05
2017-01-01T01:19:53.432Z,977.04
2017-01-01T01:20:53.425Z,977.02
2017-01-01T01:21:53.421Z,976.98
2017-01-01T01:22:53.419Z,977.02
2017-01-01T01:23:53.413Z,977
2017-01-01T01:24:53.409Z,977.01
2017-01-01T01:25:53.405Z,976.98
2017-01-01T01:26:53.397Z,976.97
2017-01-01T01:27:53.393Z,976.95
2017-01-01T01:28:53.388Z,976.98
2017-01-01T01:29:53.381Z,976.94
2017-01-01T01:30:53.381Z,976.94
2017-01-01T01:31:53.373Z,976.97
2017-01-01T01:32:53.373Z,976.94
2017-01-01T01:33:53.361Z,976.96
2017-01-01T01:34:53.360Z,976.93
2017-01-01T01:35:53.357Z,976.92
2017-01-01T01:36:53.353Z,976.95
2017-01-01T01:37:53.349Z,976.94
2017-01-01T01:38:53.341Z,976.95
2017-01-01T01:39:53.357Z,976.95
2017-01-01T01:40:53.333Z,976.91
2017-01-01T01:41:53.329Z,976.89
2017-01-01T01:42:53.321Z,976.9
2017-01-01T01:43:53.317Z,976.83
2017-01-01T01:44:53.309Z,976.83
2017-01-01T01:45:53.309Z,976.8
2017-01-01T01:46:53.301Z,976.74
2017-01-01T01:47:53.301Z,976.76
2017-01-01T01:48:53.294Z,976.72
2017-01-01T01:49:53.293Z,976.74
2017-01-01T01:50:53.285Z,976.71
2017-01-01T01:51:53.281Z,976.72
2017-01-01T01:52:53.277Z,976.72
2017-01-01T01:53:53.270Z,976.72
2017-01-01T01:54:53.265Z,976.71
2017-01-01T01:55:53.263Z,976.72
2017-01-01T01:56:53.258Z,976.73
2017-01-01T01:57:53.249Z,976.7
2017-01-01T01:58:53.249Z,976.71
2017-01-01T01:59:53.246Z,976.72
2017-01-01T02:00:53.242Z,976.67
2017-01-01T02:01:53.234Z,976.68
2017-01-01T02:02:53.230Z,976.63
2017-01-01T02:03:53.225Z,976.64
2017-01-01T02:04:53.222Z,976.63
2017-01-01T02:05:53.213Z,976.6
2017-01-01T02:06:53.210Z,976.56
2017-01-01T02:07:53.206Z,976.61
2017-01-01T02:08:53.198Z,976.57
2017-01-01T02:09:53.198Z,976.57
2017-01-01T02:10:53.190Z,976.56
2017-01-01T02:11:53.190Z,976.54
2017-01-01T02:12:53.182Z,976.51
2017-01-01T02:13:53.178Z,976.54
2017-01-01T02:14:53.174Z,976.54
2017-01-01T02:15:53.166Z,976.52
2017-01-01T02:16:53.162Z,976.51
2017-01-01T02:17:53.158Z,976.51
2017-01-01T02:18:53.154Z,976.51
2017-01-01T02:19:53.150Z,976.46
2017-01-01T02:20:53.146Z,976.48
2017-01-01T02:21:53.138Z,976.46
2017-01-01T02:22:53.138Z,976.38
2017-01-01T02:23:53.130Z,976.38
2017-01-01T02:24:53.126Z,976.37
2017-01-01T02:25:53.122Z,976.36
2017-01-01T02:26:53.118Z,976.33
2017-01-01T02:27:53.110Z,976.3
2017-01-01T02:28:53.106Z,976.29
2017-01-01T02:29:53.102Z,976.28
2017-01-01T02:30:53.094Z,976.25
2017-01-01T02:31:53.094Z,976.25
2017-01-01T02:32:53.090Z,976.22
2017-01-01T02:33:53.086Z,976.21
2017-01-01T02:34:53.078Z,976.19
2017-01-01T02:35:53.074Z,976.19
2017-01-01T02:36:53.070Z,976.18
2017-01-01T02:37:53.066Z,976.19
2017-01-01T02:38:53.059Z,976.22
2017-01-01T02:39:53.055Z,976.19
2017-01-01T02:40:53.050Z,976.2
2017-01-01T02:41:53.046Z,976.2
2017-01-01T02:42:53.042Z,976.17
2017-01-01T02:43:53.035Z,976.16
2017-01-01T02:44:53.035Z,976.16
2017-01-01T02:45:53.023Z,976.16
2017-01-01T02:46:53.023Z,976.14
2017-01-01T02:47:53.015Z,976.14
2017-01-01T02:48:53.015Z,976.13
2017-01-01T02:49:53.007Z,976.14
2017-01-01T02:50:53.003Z,976.13
2017-01-01T02:51:52.995Z,976.14
2017-01-01T02:52:52.995Z,976.1
2017-01-01T02:53:52.991Z,976.08
2017-01-01T02:54:52.983Z,976.07
2017-01-01T02:55:52.979Z,976.09
2017-01-01T02:56:52.975Z,976.03
2017-01-01T02:57:52.973Z,976.04
2017-01-01T02:58:52.963Z,975.99
2017-01-01T02:59:52.963Z,976.04
2017-01-01T03:00:52.955Z,976
2017-01-01T03:01:52.951Z,975.96
2017-01-01T03:02:52.943Z,975.98
2017-01-01T03:03:52.943Z,975.95
2017-01-01T03:04:52.935Z,975.95
2017-01-01T03:05:52.935Z,975.93
2017-01-01T03:06:52.931Z,975.87
2017-01-01T03:07:52.923Z,975.86
2017-01-01T03:08:52.919Z,975.83
2017-01-01T03:09:52.915Z,975.81
2017-01-01T03:10:52.912Z,975.77
2017-01-01T03:11:52.904Z,975.73
2017-01-01T03:12:52.899Z,975.72
2017-01-01T03:13:52.891Z,975.7
2017-01-01T03:14:52.891Z,975.64
2017-01-01T03:15:52.884Z,975.68
2017-01-01T03:16:52.884Z,975.68
2017-01-01T03:17:52.879Z,975.63
2017-01-01T03:18:52.872Z,975.59
2017-01-01T03:19:52.863Z,975.61
2017-01-01T03:20:52.864Z,975.61
2017-01-01T03:21:52.859Z,975.61
2017-01-01T03:22:52.852Z,975.64
2017-01-01T03:23:52.847Z,975.57
2017-01-01T03:24:52.839Z,975.56
2017-01-01T03:25:52.840Z,975.62
2017-01-01T03:26:52.835Z,975.57
2017-01-01T03:27:52.831Z,975.57
2017-01-01T03:28:52.824Z,975.56
2017-01-01T03:29:52.820Z,975.53
2017-01-01T03:30:52.812Z,975.58
2017-01-01T03:31:52.812Z,975.53
2017-01-01T03:32:52.804Z,975.53
2017-01-01T03:33:52.804Z,975.55
2017-01-01T03:34:52.792Z,975.53
2017-01-01T03:35:52.792Z,975.52
2017-01-01T03:36:52.787Z,975.5
2017-01-01T03:37:52.783Z,975.5
2017-01-01T03:38:52.780Z,975.51
2017-01-01T03:39:52.772Z,975.47
2017-01-01T03:40:52.767Z,975.47
2017-01-01T03:41:52.763Z,975.49
2017-01-01T03:42:52.760Z,975.48
2017-01-01T03:43:52.755Z,975.45
2017-01-01T03:44:52.747Z,975.47
2017-01-01T03:45:52.739Z,975.48
2017-01-01T03:46:52.739Z,975.45
2017-01-01T03:47:52.736Z,975.47
2017-01-01T03:48:52.731Z,975.47
2017-01-01T03:49:52.724Z,975.49
2017-01-01T03:50:52.724Z,975.45
2017-01-01T03:51:52.712Z,975.46
2017-01-01T03:52:52.711Z,975.45
2017-01-01T03:53:52.703Z,975.4
2017-01-01T03:54:52.703Z,975.41
2017-01-01T03:55:52.692Z,975.4
2017-01-01T03:56:52.691Z,975.38
2017-01-01T03:57:52.684Z,975.4
2017-01-01T03:58:52.683Z,975.4
2017-01-01T03:59:52.679Z,975.39
2017-01-01T04:00:52.675Z,975.4
2017-01-01T04:01:52.667Z,975.44
2017-01-01T04:02:52.663Z,975.43
2017-01-01T04:03:52.659Z,975.4
2017-01-01T04:04:52.655Z,975.41
2017-01-01T04:05:52.653Z,975.41
2017-01-01T04:06:52.643Z,975.39
2017-01-01T04:07:52.639Z,975.37
2017-01-01T04:08:52.631Z,975.39
2017-01-01T04:09:52.631Z,975.39
2017-01-01T04:10:52.627Z,975.36
2017-01-01T04:11:52.619Z,975.38
2017-01-01T04:12:52.615Z,975.37
2017-01-01T04:13:52.611Z,975.38
2017-01-01T04:14:52.607Z,975.34
2017-01-01T04:15:52.602Z,975.39
2017-01-01T04:16:52.599Z,975.38
2017-01-01T04:17:52.591Z,975.38
2017-01-01T04:18:52.583Z,975.35
2017-01-01T04:19:52.583Z,975.35
2017-01-01T04:20:52.579Z,975.31
2017-01-01T04:21:52.571Z,975.27
2017-01-01T04:22:52.567Z,975.32
2017-01-01T04:23:52.562Z,975.25
2017-01-01T04:24:52.555Z,975.25
2017-01-01T04:25:52.555Z,975.26
2017-01-01T04:26:52.551Z,975.26
2017-01-01T04:27:52.543Z,975.22
2017-01-01T04:28:52.539Z,975.23
2017-01-01T04:29:52.539Z,975.24
2017-01-01T04:30:52.530Z,975.21
2017-01-01T04:31:52.524Z,975.21
2017-01-01T04:32:52.519Z,975.18
2017-01-01T04:33:52.515Z,975.19
2017-01-01T04:34:52.510Z,975.16
2017-01-01T04:35:52.507Z,975.19
2017-01-01T04:36:52.499Z,975.15
2017-01-01T04:37:52.495Z,975.19
2017-01-01T04:38:52.491Z,975.17
2017-01-01T04:39:52.487Z,975.17
2017-01-01T04:40:52.479Z,975.16
2017-01-01T04:41:52.479Z,975.14
2017-01-01T04:42:52.476Z,975.14
2017-01-01T04:43:52.464Z,975.11
2017-01-01T04:44:52.464Z,975.17
2017-01-01T04:45:52.457Z,975.09
2017-01-01T04:46:52.456Z,975.11
2017-01-01T04:47:52.453Z,975.1
2017-01-01T04:48:52.449Z,975.07
2017-01-01T04:49:52.437Z,975.09
2017-01-01T04:50:52.437Z,975.09
2017-01-01T04:51:52.430Z,975.07
2017-01-01T04:52:52.429Z,975.06
2017-01-01T04:53:52.422Z,975.04
2017-01-01T04:54:52.418Z,975.04
2017-01-01T04:55:52.410Z,975.06
2017-01-01T04:56:52.410Z,975.07
2017-01-01T04:57:52.407Z,975.05
2017-01-01T04:58:52.398Z,975.02
2017-01-01T04:59:52.395Z,975.02
2017-01-01T05:00:52.391Z,975.03
2017-01-01T05:01:52.387Z,974.99
2017-01-01T05:02:52.379Z,974.98
2017-01-01T05:03:52.380Z,974.96
2017-01-01T05:04:52.368Z,974.96
2017-01-01T05:05:52.368Z,974.91
2017-01-01T05:06:52.360Z,974.91
2017-01-01T05:07:52.360Z,974.92
2017-01-01T05:08:52.352Z,974.94
2017-01-01T05:09:52.348Z,974.91
2017-01-01T05:10:52.345Z,974.96
2017-01-01T05:11:52.341Z,974.96
2017-01-01T05:12:52.337Z,974.92
2017-01-01T05:13:52.325Z,974.9
2017-01-01T05:14:52.325Z,974.89
2017-01-01T05:15:52.318Z,974.93
2017-01-01T05:16:52.318Z,974.92
2017-01-01T05:17:52.310Z,974.91
2017-01-01T05:18:52.306Z,974.93
2017-01-01T05:19:52.302Z,974.91
2017-01-01T05:20:52.298Z,974.92
2017-01-01T05:21:52.294Z,974.89
2017-01-01T05:22:52.283Z,974.89
2017-01-01T05:23:52.283Z,974.84
2017-01-01T05:24:52.275Z,974.9
2017-01-01T05:25:52.275Z,974.87
2017-01-01T05:26:52.267Z,974.87
2017-01-01T05:27:52.263Z,974.91
2017-01-01T05:28:52.255Z,974.92
2017-01-01T05:29:52.255Z,974.89
2017-01-01T05:30:52.252Z,974.89
2017-01-01T05:31:52.247Z,974.93
2017-01-01T05:32:52.248Z,974.9
2017-01-01T05:33:52.232Z,974.89
2017-01-01T05:34:52.232Z,974.9
2017-01-01T05:35:52.228Z,974.89
2017-01-01T05:36:52.224Z,974.88
2017-01-01T05:37:52.216Z,974.88
2017-01-01T05:38:52.212Z,974.87
2017-01-01T05:39:52.208Z,974.88
2017-01-01T05:40:52.201Z,974.9
2017-01-01T05:41:52.202Z,974.91
2017-01-01T05:42:52.193Z,974.88
2017-01-01T05:43:52.189Z,974.86
2017-01-01T05:44:52.181Z,974.87
2017-01-01T05:45:52.181Z,974.85
2017-01-01T05:46:52.174Z,974.89
2017-01-01T05:47:52.166Z,974.87
2017-01-01T05:48:52.166Z,974.82
2017-01-01T05:49:52.158Z,974.82
2017-01-01T05:50:52.158Z,974.85
2017-01-01T05:51:52.150Z,974.87
2017-01-01T05:52:52.146Z,974.87
2017-01-01T05:53:52.142Z,974.86
2017-01-01T05:54:52.134Z,974.88
2017-01-01T05:55:52.134Z,974.88
2017-01-01T05:56:52.122Z,974.86
2017-01-01T05:57:52.123Z,974.81
2017-01-01T05:58:52.119Z,974.83
2017-01-01T05:59:52.115Z,974.82
2017-01-01T06:00:52.111Z,974.82
2017-01-01T06:01:52.099Z,974.78
2017-01-01T06:02:52.099Z,974.78
2017-01-01T06:03:52.091Z,974.8
2017-01-01T06:04:52.092Z,974.82
2017-01-01T06:05:52.088Z,974.79
2017-01-01T06:06:52.076Z,974.79
2017-01-01T06:07:52.075Z,974.77
2017-01-01T06:08:52.070Z,974.77
2017-01-01T06:09:52.068Z,974.76
2017-01-01T06:10:52.060Z,974.73
2017-01-01T06:11:52.056Z,974.76
2017-01-01T06:12:52.052Z,974.74
2017-01-01T06:13:52.049Z,974.72
2017-01-01T06:14:52.044Z,974.73
2017-01-01T06:15:52.037Z,974.73
2017-01-01T06:16:52.033Z,974.76
2017-01-01T06:17:52.028Z,974.75
2017-01-01T06:18:52.021Z,974.72
2017-01-01T06:19:52.022Z,974.72
2017-01-01T06:20:52.013Z,974.7
2017-01-01T06:21:52.005Z,974.7
2017-01-01T06:22:52.021Z,974.68
2017-01-01T06:23:51.997Z,974.64
2017-01-01T06:24:51.994Z,974.69
2017-01-01T06:25:51.989Z,974.65
2017-01-01T06:26:51.982Z,974.65
2017-01-01T06:27:51.982Z,974.65
2017-01-01T06:28:51.974Z,974.59
2017-01-01T06:29:51.974Z,974.58
2017-01-01T06:30:51.966Z,974.57
2017-01-01T06:31:51.958Z,974.51
2017-01-01T06:32:51.959Z,974.55
2017-01-01T06:33:51.950Z,974.49
2017-01-01T06:34:51.946Z,974.49
2017-01-01T06:35:51.942Z,974.47
2017-01-01T06:36:51.937Z,974.49
2017-01-01T06:37:51.934Z,974.49
2017-01-01T06:38:51.927Z,974.47
2017-01-01T06:39:51.923Z,974.44
2017-01-01T06:40:51.920Z,974.49
2017-01-01T06:41:51.911Z,974.45
2017-01-01T06:42:51.912Z,974.44
2017-01-01T06:43:51.903Z,974.46
2017-01-01T06:44:51.900Z,974.43
2017-01-01T06:45:51.896Z,974.4
2017-01-01T06:46:51.892Z,974.43
2017-01-01T06:47:51.880Z,974.38
2017-01-01T06:48:51.879Z,974.42
2017-01-01T06:49:51.876Z,974.4
2017-01-01T06:50:51.872Z,974.41
2017-01-01T06:51:51.864Z,974.37
2017-01-01T06:52:51.856Z,974.36
2017-01-01T06:53:51.857Z,974.35
2017-01-01T06:54:51.849Z,974.37
2017-01-01T06:55:51.849Z,974.36
2017-01-01T06:56:51.845Z,974.36
2017-01-01T06:57:51.833Z,974.37
2017-01-01T06:58:51.833Z,974.35
2017-01-01T06:59:51.826Z,974.37
2017-01-01T07:00:51.825Z,974.34
2017-01-01T07:01:51.817Z,974.34
2017-01-01T07:02:51.809Z,974.32
2017-01-01T07:03:51.809Z,974.26
2017-01-01T07:04:51.802Z,974.26
2017-01-01T07:05:51.794Z,974.22
2017-01-01T07:06:51.793Z,974.27
2017-01-01T07:07:51.789Z,974.22
2017-01-01T07:08:51.786Z,974.28
2017-01-01T07:09:51.778Z,974.3
2017-01-01T07:10:51.774Z,974.29
2017-01-01T07:11:51.770Z,974.24
2017-01-01T07:12:51.766Z,974.3
2017-01-01T07:13:51.762Z,974.28
2017-01-01T07:14:51.759Z,974.28
2017-01-01T07:15:51.747Z,974.27
2017-01-01T07:16:51.747Z,974.23
2017-01-01T07:17:51.743Z,974.27
2017-01-01T07:18:51.739Z,974.27
2017-01-01T07:19:51.731Z,974.24
2017-01-01T07:20:51.724Z,974.27
2017-01-01T07:21:51.723Z,974.35
2017-01-01T07:22:51.715Z,974.36
2017-01-01T07:23:51.708Z,974.31
2017-01-01T07:24:51.707Z,974.3
2017-01-01T07:25:51.704Z,974.31
2017-01-01T07:26:51.700Z,974.34
2017-01-01T07:27:51.707Z,974.3
2017-01-01T07:28:51.684Z,974.31
2017-01-01T07:29:51.684Z,974.25
2017-01-01T07:30:51.676Z,974.29
2017-01-01T07:31:51.676Z,974.27
2017-01-01T07:32:51.672Z,974.22
2017-01-01T07:33:51.666Z,974.23
2017-01-01T07:34:51.660Z,974.24
2017-01-01T07:35:51.658Z,974.19
2017-01-01T07:36:51.649Z,974.22
2017-01-01T07:37:51.649Z,974.2
2017-01-01T07:38:51.637Z,974.21
2017-01-01T07:39:51.637Z,974.19
2017-01-01T07:40:51.633Z,974.25
2017-01-01T07:41:51.622Z,974.2
2017-01-01T07:42:51.621Z,974.2
2017-01-01T07:43:51.617Z,974.17
2017-01-01T07:44:51.613Z,974.18
2017-01-01T07:45:51.609Z,974.2
2017-01-01T07:46:51.598Z,974.17
2017-01-01T07:47:51.598Z,974.22
2017-01-01T07:48:51.590Z,974.21
2017-01-01T07:49:51.590Z,974.2
2017-01-01T07:50:51.586Z,974.23
2017-01-01T07:51:51.582Z,974.18
2017-01-01T07:52:51.576Z,974.16
2017-01-01T07:53:51.567Z,974.15
2017-01-01T07:54:51.566Z,974.15
2017-01-01T07:55:51.563Z,974.11
2017-01-01T07:56:51.551Z,974.09
2017-01-01T07:57:51.551Z,974.11
2017-01-01T07:58:51.543Z,974.12
2017-01-01T07:59:51.552Z,974.14
2017-01-01T08:00:51.535Z,974.14
2017-01-01T08:01:51.531Z,974.15
2017-01-01T08:02:51.527Z,974.17
2017-01-01T08:03:51.523Z,974.15
2017-01-01T08:04:51.519Z,974.19
2017-01-01T08:05:51.516Z,974.17
2017-01-01T08:06:51.507Z,974.17
2017-01-01T08:07:51.504Z,974.15
2017-01-01T08:08:51.500Z,974.17
2017-01-01T08:09:51.496Z,974.18
2017-01-01T08:10:51.483Z,974.16
2017-01-01T08:11:51.483Z,974.14
2017-01-01T08:12:51.474Z,974.15
2017-01-01T08:13:51.474Z,974.16
2017-01-01T08:14:51.466Z,974.11
2017-01-01T08:15:51.461Z,974.13
2017-01-01T08:16:51.453Z,974.11
2017-01-01T08:17:51.452Z,974.12
2017-01-01T08:18:51.448Z,974.09
2017-01-01T08:19:51.444Z,974.09
2017-01-01T08:20:51.440Z,974.06
2017-01-01T08:21:51.427Z,974.06
2017-01-01T08:22:51.426Z,974.09
2017-01-01T08:23:51.418Z,974.07
2017-01-01T08:24:51.418Z,974.03
2017-01-01T08:25:51.406Z,974.02
2017-01-01T08:26:51.405Z,974.03
2017-01-01T08:27:51.397Z,974.03
2017-01-01T08:28:51.397Z,974
2017-01-01T08:29:51.393Z,974
2017-01-01T08:30:51.384Z,974
2017-01-01T08:31:51.380Z,973.96
2017-01-01T08:32:51.376Z,973.96
2017-01-01T08:33:51.371Z,973.98
2017-01-01T08:34:51.367Z,973.99
2017-01-01T08:35:51.359Z,973.99
2017-01-01T08:36:51.354Z,974.06
2017-01-01T08:37:51.350Z,973.99
2017-01-01T08:38:51.346Z,974
2017-01-01T08:39:51.342Z,973.99
2017-01-01T08:40:51.334Z,974.03
2017-01-01T08:41:51.330Z,974.03
2017-01-01T08:42:51.326Z,974.01
2017-01-01T08:43:51.322Z,974
2017-01-01T08:44:51.317Z,973.97
2017-01-01T08:45:51.314Z,973.98
2017-01-01T08:46:51.305Z,973.97
2017-01-01T08:47:51.301Z,973.95
2017-01-01T08:48:51.297Z,973.94
2017-01-01T08:49:51.289Z,973.91
2017-01-01T08:50:51.289Z,973.92
2017-01-01T08:51:51.281Z,973.93
2017-01-01T08:52:51.277Z,973.92
2017-01-01T08:53:51.273Z,973.9
2017-01-01T08:54:51.269Z,973.9
2017-01-01T08:55:51.261Z,973.91
2017-01-01T08:56:51.261Z,973.96
2017-01-01T08:57:51.249Z,973.88
2017-01-01T08:58:51.249Z,973.9
2017-01-01T08:59:51.244Z,973.9
2017-01-01T09:00:51.240Z,973.87
2017-01-01T09:01:51.237Z,973.85
2017-01-01T09:02:51.224Z,973.85
2017-01-01T09:03:51.228Z,973.87
2017-01-01T09:04:51.220Z,973.9
2017-01-01T09:05:51.216Z,973.86
2017-01-01T09:06:51.212Z,973.84
2017-01-01T09:07:51.208Z,973.81
2017-01-01T09:08:51.200Z,973.8
2017-01-01T09:09:51.192Z,973.78
2017-01-01T09:10:51.192Z,973.78
2017-01-01T09:11:51.188Z,973.76
2017-01-01T09:12:51.184Z,973.78
2017-01-01T09:13:51.180Z,973.77
2017-01-01T09:14:51.168Z,973.72
2017-01-01T09:15:51.169Z,973.74
2017-01-01T09:16:51.163Z,973.73
2017-01-01T09:17:51.155Z,973.71
2017-01-01T09:18:51.156Z,973.69
2017-01-01T09:19:51.151Z,973.69
2017-01-01T09:20:51.139Z,973.71
2017-01-01T09:21:51.139Z,973.7
2017-01-01T09:22:51.135Z,973.67
2017-01-01T09:23:51.131Z,973.68
2017-01-01T09:24:51.127Z,973.67
2017-01-01T09:25:51.123Z,973.68
2017-01-01T09:26:51.115Z,973.65
2017-01-01T09:27:51.115Z,973.65
2017-01-01T09:28:51.103Z,973.66
2017-01-01T09:29:51.107Z,973.6
2017-01-01T09:30:51.098Z,973.59
2017-01-01T09:31:51.095Z,973.6
2017-01-01T09:32:51.087Z,973.58
2017-01-01T09:33:51.087Z,973.59
2017-01-01T09:34:51.082Z,973.61
2017-01-01T09:35:51.071Z,973.59
2017-01-01T09:36:51.066Z,973.66
2017-01-01T09:37:51.066Z,973.64
2017-01-01T09:38:51.062Z,973.61
2017-01-01T09:39:51.055Z,973.59
2017-01-01T09:40:51.055Z,973.57
2017-01-01T09:41:51.050Z,973.56
2017-01-01T09:42:51.042Z,973.53
2017-01-01T09:43:51.034Z,973.51
2017-01-01T09:44:51.031Z,973.54
2017-01-01T09:45:51.030Z,973.48
2017-01-01T09:46:51.026Z,973.51
2017-01-01T09:47:51.022Z,973.47
2017-01-01T09:48:51.014Z,973.44
2017-01-01T09:49:51.014Z,973.44
2017-01-01T09:50:51.010Z,973.43
2017-01-01T09:51:51.002Z,973.46
2017-01-01T09:52:50.994Z,973.43
2017-01-01T09:53:50.994Z,973.42
2017-01-01T09:54:50.990Z,973.38
2017-01-01T09:55:50.986Z,973.38
2017-01-01T09:56:50.982Z,973.36
2017-01-01T09:57:50.974Z,973.38
2017-01-01T09:58:50.969Z,973.35
2017-01-01T09:59:50.969Z,973.37
2017-01-01T10:00:50.961Z,973.35
2017-01-01T10:01:50.957Z,973.32
2017-01-01T10:02:50.949Z,973.32
2017-01-01T10:03:50.946Z,973.35
2017-01-01T10:04:50.942Z,973.32
2017-01-01T10:05:50.941Z,973.3
2017-01-01T10:06:50.938Z,973.25
2017-01-01T10:07:50.925Z,973.24
2017-01-01T10:08:50.921Z,973.23
2017-01-01T10:09:50.917Z,973.21
2017-01-01T10:10:50.917Z,973.23
2017-01-01T10:11:50.914Z,973.22
2017-01-01T10:12:50.909Z,973.2
2017-01-01T10:13:50.905Z,973.19
2017-01-01T10:14:50.900Z,973.2
2017-01-01T10:15:50.893Z,973.18
2017-01-01T10:16:50.888Z,973.16
2017-01-01T10:17:50.884Z,973.11
2017-01-01T10:18:50.876Z,973.06
2017-01-01T10:19:50.876Z,973.06
2017-01-01T10:20:50.873Z,973.03
2017-01-01T10:21:50.867Z,973.05
2017-01-01T10:22:50.863Z,972.97
2017-01-01T10:23:50.860Z,972.93
2017-01-01T10:24:50.855Z,972.92
2017-01-01T10:25:50.851Z,972.92
2017-01-01T10:26:50.847Z,972.89
2017-01-01T10:27:50.843Z,972.84
2017-01-01T10:28:50.839Z,972.83
2017-01-01T10:29:50.827Z,972.89
2017-01-01T10:30:50.823Z,972.82
2017-01-01T10:31:50.822Z,972.79
2017-01-01T10:32:50.818Z,972.79
2017-01-01T10:33:50.811Z,972.75
2017-01-01T10:34:50.806Z,972.81
2017-01-01T10:35:50.802Z,972.78
2017-01-01T10:36:50.798Z,972.71
2017-01-01T10:37:50.794Z,972.7
2017-01-01T10:38:50.794Z,972.69
2017-01-01T10:39:50.786Z,972.69
2017-01-01T10:40:50.783Z,972.69
2017-01-01T10:41:50.777Z,972.67
2017-01-01T10:42:50.777Z,972.65
2017-01-01T10:43:50.773Z,972.61
2017-01-01T10:44:50.762Z,972.55
2017-01-01T10:45:50.761Z,972.55
2017-01-01T10:46:50.757Z,972.53
2017-01-01T10:47:50.753Z,972.53
2017-01-01T10:48:50.749Z,972.52
2017-01-01T10:49:50.745Z,972.46
2017-01-01T10:50:50.741Z,972.47
2017-01-01T10:51:50.737Z,972.44
2017-01-01T10:52:50.733Z,972.42
2017-01-01T10:53:50.725Z,972.38
2017-01-01T10:54:50.721Z,972.37
2017-01-01T10:55:50.717Z,972.4
2017-01-01T10:56:50.717Z,972.33
2017-01-01T10:57:50.713Z,972.35
2017-01-01T10:58:50.709Z,972.33
2017-01-01T10:59:50.705Z,972.3
2017-01-01T11:00:50.697Z,972.31
2017-01-01T11:01:50.697Z,972.3
2017-01-01T11:02:50.693Z,972.26
2017-01-01T11:03:50.688Z,972.25
2017-01-01T11:04:50.685Z,972.24
2017-01-01T11:05:50.676Z,972.23
2017-01-01T11:06:50.677Z,972.23
2017-01-01T11:07:50.675Z,972.2
2017-01-01T11:08:50.669Z,972.21
2017-01-01T11:09:50.661Z,972.16
2017-01-01T11:10:50.661Z,972.14
2017-01-01T11:11:50.657Z,972.15
2017-01-01T11:12:50.653Z,972.11
2017-01-01T11:13:50.648Z,972.09
2017-01-01T11:14:50.645Z,972.14
2017-01-01T11:15:50.640Z,972.12
2017-01-01T11:16:50.633Z,972.12
2017-01-01T11:17:50.632Z,972.08
2017-01-01T11:18:50.628Z,972.05
2017-01-01T11:19:50.620Z,972.02
2017-01-01T11:20:50.620Z,972.02
2017-01-01T11:21:50.617Z,972.02
2017-01-01T11:22:50.608Z,971.99
2017-01-01T11:23:50.608Z,971.98
2017-01-01T11:24:50.604Z,971.92
2017-01-01T11:25:50.596Z,971.94
2017-01-01T11:26:50.596Z,971.92
2017-01-01T11:27:50.592Z,971.89
2017-01-01T11:28:50.584Z,971.85
2017-01-01T11:29:50.584Z,971.89
2017-01-01T11:30:50.601Z,971.85
2017-01-01T11:31:50.576Z,971.85
2017-01-01T11:32:50.572Z,971.83
2017-01-01T11:33:50.568Z,971.85
2017-01-01T11:34:50.564Z,971.81
2017-01-01T11:35:50.560Z,971.8
2017-01-01T11:36:50.552Z,971.76
2017-01-01T11:37:50.556Z,971.79
2017-01-01T11:38:50.548Z,971.77
2017-01-01T11:39:50.543Z,971.71
2017-01-01T11:40:50.543Z,971.69
2017-01-01T11:41:50.536Z,971.68
2017-01-01T11:42:50.537Z,971.67
2017-01-01T11:43:50.532Z,971.65
2017-01-01T11:44:50.527Z,971.68
2017-01-01T11:45:50.519Z,971.67
2017-01-01T11:46:50.519Z,971.65
2017-01-01T11:47:50.515Z,971.62
2017-01-01T11:48:50.507Z,971.62
2017-01-01T11:49:50.507Z,971.59
2017-01-01T11:50:50.503Z,971.58
2017-01-01T11:51:50.499Z,971.55
2017-01-01T11:52:50.497Z,971.57
2017-01-01T11:53:50.487Z,971.53
2017-01-01T11:54:50.487Z,971.57
2017-01-01T11:55:50.479Z,971.57
2017-01-01T11:56:50.479Z,971.54
2017-01-01T11:57:50.471Z,971.53
2017-01-01T11:58:50.471Z,971.5
2017-01-01T11:59:50.467Z,971.51
2017-01-01T12:00:50.463Z,971.51
2017-01-01T12:01:50.459Z,971.5
2017-01-01T12:02:50.459Z,971.5
2017-01-01T12:03:50.455Z,971.5
2017-01-01T12:04:50.446Z,971.54
2017-01-01T12:05:50.443Z,971.53
2017-01-01T12:06:50.443Z,971.49
2017-01-01T12:07:50.439Z,971.49
2017-01-01T12:08:50.434Z,971.45
2017-01-01T12:09:50.431Z,971.44
2017-01-01T12:10:50.426Z,971.45
2017-01-01T12:11:50.422Z,971.45
2017-01-01T12:12:50.415Z,971.46
2017-01-01T12:13:50.414Z,971.45
2017-01-01T12:14:50.407Z,971.43
2017-01-01T12:15:50.407Z,971.44
2017-01-01T12:16:50.399Z,971.45
2017-01-01T12:17:50.399Z,971.41
2017-01-01T12:18:50.391Z,971.37
2017-01-01T12:19:50.391Z,971.34
2017-01-01T12:20:50.387Z,971.35
2017-01-01T12:21:50.387Z,971.35
2017-01-01T12:22:50.383Z,971.32
2017-01-01T12:23:50.379Z,971.3
2017-01-01T12:24:50.375Z,971.24
2017-01-01T12:25:50.372Z,971.19
2017-01-01T12:26:50.363Z,971.2
2017-01-01T12:27:50.363Z,971.17
2017-01-01T12:28:50.359Z,971.14
2017-01-01T12:29:50.355Z,971.16
2017-01-01T12:30:50.351Z,971.13
2017-01-01T12:31:50.347Z,971.08